SBSM/RIA METAR and TAF weather

Enter ICAO airport designator
Station Type Date Time Source
SBSM METAR 2019/04/25 10:00 UTC NOAA

SBSM 251000Z 10007KT 080V140 9999 OVC009 21/1


Station Type Date Time Source
SBSM Decoded METAR 2019/04/25 10:00 UTC NOAA

Santa Maria Aero-Porto , Brazil (SBSM) 29-43S 053-42W
Apr 25, 2019 - 06:00 AM EDT / 2019.04.25 1000 UTC
Wind: from the E (100 degrees) at 8 MPH (7 KT) (direction variable):0
Visibility: greater than 7 mile(s):0
Sky conditions: overcast
Temperature: 69 F (21 C)
Dew Point: 66 F (19 C)
Relative Humidity: 88%
Pressure (altimeter): 30.09 in. Hg (1019 hPa)
ob: SBSM 251000Z 10007KT 080V140 9999 OVC009 21/19 Q1019
cycle: 10

Station Type Date Time Source
SBSM TAF 2019/04/25 06:30 UTC NOAA

TAF SBSM 250300Z 2506/2518 10008KT 9999 BKN015 TN19/2508Z TX28/2518Z PROB30 2506/2508 VCTS SCT030 FEW035CB PROB40 2508/2510 3000 RA BR BKN008 BKN020
BECMG 2514/2516 BKN030 FEW035TCU
RMK PDJ

Example: see airport list